sensor_id;sensor_type;location;lat;lon;timestamp;pressure;altitude;pressure_sealevel;temperature;humidity
66430;BME280;53242;51.694;10.006;2023-01-05T00:01:23;99180.09;;;10.73;79.26
66430;BME280;53242;51.694;10.006;2023-01-05T00:03:45;99172.97;;;10.80;78.66
66430;BME280;53242;51.694;10.006;2023-01-05T00:06:15;99172.97;;;10.80;78.75
66430;BME280;53242;51.694;10.006;2023-01-05T00:08:39;99175.22;;;10.83;78.24
66430;BME280;53242;51.694;10.006;2023-01-05T00:11:05;99176.84;;;10.71;78.65
66430;BME280;53242;51.694;10.006;2023-01-05T00:13:46;99169.13;;;10.76;78.44
66430;BME280;53242;51.694;10.006;2023-01-05T00:16:27;99156.94;;;10.75;78.51
66430;BME280;53242;51.694;10.006;2023-01-05T00:19:11;99175.63;;;10.74;78.22
66430;BME280;53242;51.694;10.006;2023-01-05T00:21:52;99171.59;;;10.84;77.44
66430;BME280;53242;51.694;10.006;2023-01-05T00:24:33;99180.28;;;10.65;78.17
66430;BME280;53242;51.694;10.006;2023-01-05T00:26:56;99174.00;;;10.73;77.36
66430;BME280;53242;51.694;10.006;2023-01-05T00:29:18;99166.69;;;10.81;76.91
66430;BME280;53242;51.694;10.006;2023-01-05T00:31:41;99168.34;;;10.76;77.48
66430;BME280;53242;51.694;10.006;2023-01-05T00:34:03;99156.94;;;10.75;77.22
66430;BME280;53242;51.694;10.006;2023-01-05T00:36:26;99172.59;;;10.77;77.17
66430;BME280;53242;51.694;10.006;2023-01-05T00:38:48;99176.03;;;10.77;76.58
66430;BME280;53242;51.694;10.006;2023-01-05T00:41:11;99176.84;;;10.78;76.65
66430;BME280;53242;51.694;10.006;2023-01-05T00:43:33;99177.66;;;10.78;76.35
66430;BME280;53242;51.694;10.006;2023-01-05T00:45:56;99181.13;;;10.79;76.80
66430;BME280;53242;51.694;10.006;2023-01-05T00:48:18;99191.06;;;10.83;76.47
66430;BME280;53242;51.694;10.006;2023-01-05T00:50:40;99188.63;;;10.75;77.28
66430;BME280;53242;51.694;10.006;2023-01-05T00:53:03;99184.97;;;10.76;77.62
66430;BME280;53242;51.694;10.006;2023-01-05T00:55:25;99186.19;;;10.80;77.01
66430;BME280;53242;51.694;10.006;2023-01-05T00:57:48;99186.19;;;10.80;77.70
66430;BME280;53242;51.694;10.006;2023-01-05T01:00:13;99189.44;;;10.69;78.82
66430;BME280;53242;51.694;10.006;2023-01-05T01:02:37;99204.88;;;10.59;79.69
66430;BME280;53242;51.694;10.006;2023-01-05T01:04:59;99199.16;;;10.48;80.80
66430;BME280;53242;51.694;10.006;2023-01-05T01:07:21;99209.47;;;10.36;82.07
66430;BME280;53242;51.694;10.006;2023-01-05T01:09:44;99220.41;;;10.27;83.31
66430;BME280;53242;51.694;10.006;2023-01-05T01:12:06;99218.94;;;10.11;84.81
66430;BME280;53242;51.694;10.006;2023-01-05T01:14:30;99209.78;;;10.00;86.07
66430;BME280;53242;51.694;10.006;2023-01-05T01:16:52;99208.50;;;9.89;87.19
66430;BME280;53242;51.694;10.006;2023-01-05T01:19:17;99217.00;;;9.84;87.66
66430;BME280;53242;51.694;10.006;2023-01-05T01:21:40;99217.38;;;9.81;87.78
66430;BME280;53242;51.694;10.006;2023-01-05T01:24:03;99221.84;;;9.81;87.51
66430;BME280;53242;51.694;10.006;2023-01-05T01:26:25;99219.03;;;9.82;87.18
66430;BME280;53242;51.694;10.006;2023-01-05T01:28:47;99205.50;;;9.99;85.38
66430;BME280;53242;51.694;10.006;2023-01-05T01:31:10;99216.41;;;9.89;86.11
66430;BME280;53242;51.694;10.006;2023-01-05T01:33:32;99220.63;;;9.77;86.46
66430;BME280;53242;51.694;10.006;2023-01-05T01:35:55;99214.19;;;9.86;85.83
66430;BME280;53242;51.694;10.006;2023-01-05T01:38:17;99228.59;;;9.97;84.59
66430;BME280;53242;51.694;10.006;2023-01-05T01:40:43;99237.50;;;9.89;84.28
66430;BME280;53242;51.694;10.006;2023-01-05T01:43:18;99247.28;;;10.02;82.78
66430;BME280;53242;51.694;10.006;2023-01-05T01:45:41;99252.63;;;10.22;81.92
66430;BME280;53242;51.694;10.006;2023-01-05T01:48:04;99246.50;;;10.15;81.90
66430;BME280;53242;51.694;10.006;2023-01-05T01:50:32;99237.78;;;10.08;82.71
66430;BME280;53242;51.694;10.006;2023-01-05T01:53:07;99248.94;;;10.10;82.10
66430;BME280;53242;51.694;10.006;2023-01-05T01:55:32;99254.16;;;9.96;83.00
66430;BME280;53242;51.694;10.006;2023-01-05T01:57:56;99248.53;;;10.06;82.56
66430;BME280;53242;51.694;10.006;2023-01-05T02:00:19;99254.78;;;9.98;82.93
66430;BME280;53242;51.694;10.006;2023-01-05T02:02:48;99250.94;;;10.01;82.61
66430;BME280;53242;51.694;10.006;2023-01-05T02:05:17;99252.63;;;10.15;81.48
66430;BME280;53242;51.694;10.006;2023-01-05T02:07:46;99251.72;;;9.95;82.20
66430;BME280;53242;51.694;10.006;2023-01-05T02:10:08;99253.41;;;10.09;81.62
66430;BME280;53242;51.694;10.006;2023-01-05T02:12:40;99265.94;;;10.00;81.94
66430;BME280;53242;51.694;10.006;2023-01-05T02:15:28;99259.47;;;10.03;81.24
66430;BME280;53242;51.694;10.006;2023-01-05T02:23:36;99233.94;;;10.10;80.43
66430;BME280;53242;51.694;10.006;2023-01-05T02:31:14;99256.91;;;10.16;78.27
66430;BME280;53242;51.694;10.006;2023-01-05T02:33:51;99267.66;;;10.22;77.64
66430;BME280;53242;51.694;10.006;2023-01-05T02:36:28;99264.19;;;10.14;78.03
66430;BME280;53242;51.694;10.006;2023-01-05T02:44:07;99261.94;;;10.11;77.82
66430;BME280;53242;51.694;10.006;2023-01-05T02:46:29;99258.91;;;10.14;77.77
66430;BME280;53242;51.694;10.006;2023-01-05T02:48:55;99252.56;;;10.02;78.49
66430;BME280;53242;51.694;10.006;2023-01-05T02:51:22;99254.63;;;10.07;78.16
66430;BME280;53242;51.694;10.006;2023-01-05T02:53:54;99256.00;;;9.96;78.50
66430;BME280;53242;51.694;10.006;2023-01-05T02:56:28;99252.97;;;9.99;78.53
66430;BME280;53242;51.694;10.006;2023-01-05T02:58:58;99252.75;;;10.00;78.34
66430;BME280;53242;51.694;10.006;2023-01-05T03:01:28;99259.09;;;10.06;77.77
66430;BME280;53242;51.694;10.006;2023-01-05T03:04:08;99255.78;;;9.97;78.33
66430;BME280;53242;51.694;10.006;2023-01-05T03:06:43;99246.06;;;9.98;78.63
66430;BME280;53242;51.694;10.006;2023-01-05T03:09:10;99249.13;;;10.01;78.60
66430;BME280;53242;51.694;10.006;2023-01-05T03:11:38;99255.25;;;10.09;77.98
66430;BME280;53242;51.694;10.006;2023-01-05T03:14:29;99260.66;;;10.00;78.47
66430;BME280;53242;51.694;10.006;2023-01-05T03:16:54;99263.91;;;9.96;79.00
66430;BME280;53242;51.694;10.006;2023-01-05T03:19:19;99260.22;;;9.90;79.75
66430;BME280;53242;51.694;10.006;2023-01-05T03:22:00;99264.28;;;9.93;79.77
66430;BME280;53242;51.694;10.006;2023-01-05T03:24:43;99261.84;;;9.91;80.11
66430;BME280;53242;51.694;10.006;2023-01-05T03:27:26;99254.94;;;9.90;80.14
66430;BME280;53242;51.694;10.006;2023-01-05T03:30:10;99262.84;;;9.90;79.91
66430;BME280;53242;51.694;10.006;2023-01-05T03:32:59;99266.00;;;9.72;80.87
66430;BME280;53242;51.694;10.006;2023-01-05T03:35:46;99269.50;;;9.79;80.09
66430;BME280;53242;51.694;10.006;2023-01-05T03:38:23;99271.53;;;9.84;80.08
66430;BME280;53242;51.694;10.006;2023-01-05T03:40:50;99267.09;;;9.84;80.03
66430;BME280;53242;51.694;10.006;2023-01-05T03:43:15;99267.78;;;10.00;78.84
66430;BME280;53242;51.694;10.006;2023-01-05T03:45:42;99284.13;;;9.88;78.85
66430;BME280;53242;51.694;10.006;2023-01-05T03:48:10;99268.13;;;9.90;78.56
66430;BME280;53242;51.694;10.006;2023-01-05T03:50:34;99273.63;;;9.95;78.22
66430;BME280;53242;51.694;10.006;2023-01-05T03:52:57;99285.78;;;9.90;78.65
66430;BME280;53242;51.694;10.006;2023-01-05T03:55:20;99278.47;;;9.92;78.45
66430;BME280;53242;51.694;10.006;2023-01-05T03:57:46;99280.09;;;9.93;77.98
66430;BME280;53242;51.694;10.006;2023-01-05T04:00:10;99281.09;;;9.92;78.33
66430;BME280;53242;51.694;10.006;2023-01-05T04:02:40;99285.41;;;9.99;77.48
66430;BME280;53242;51.694;10.006;2023-01-05T04:05:03;99289.63;;;9.87;78.04
66430;BME280;53242;51.694;10.006;2023-01-05T04:07:25;99284.34;;;9.87;78.32
66430;BME280;53242;51.694;10.006;2023-01-05T04:09:49;99286.94;;;9.80;78.36
66430;BME280;53242;51.694;10.006;2023-01-05T04:12:14;99295.47;;;9.82;78.12
66430;BME280;53242;51.694;10.006;2023-01-05T04:14:39;99296.56;;;10.01;76.57
66430;BME280;53242;51.694;10.006;2023-01-05T04:17:01;99301.59;;;9.90;77.25
66430;BME280;53242;51.694;10.006;2023-01-05T04:19:24;99305.63;;;9.85;77.71
66430;BME280;53242;51.694;10.006;2023-01-05T04:21:49;99298.91;;;9.83;78.28
66430;BME280;53242;51.694;10.006;2023-01-05T04:24:11;99305.34;;;9.74;78.89
66430;BME280;53242;51.694;10.006;2023-01-05T04:26:36;99303.75;;;9.79;78.71
66430;BME280;53242;51.694;10.006;2023-01-05T04:29:00;99314.44;;;9.71;79.48
66430;BME280;53242;51.694;10.006;2023-01-05T04:31:23;99317.97;;;9.85;78.73
66430;BME280;53242;51.694;10.006;2023-01-05T04:33:47;99310.03;;;9.78;79.09
66430;BME280;53242;51.694;10.006;2023-01-05T04:36:13;99309.59;;;9.75;79.40
66430;BME280;53242;51.694;10.006;2023-01-05T04:38:35;99314.53;;;9.84;78.26
66430;BME280;53242;51.694;10.006;2023-01-05T04:40:58;99322.44;;;9.84;78.02
66430;BME280;53242;51.694;10.006;2023-01-05T04:43:21;99322.00;;;9.81;78.44
66430;BME280;53242;51.694;10.006;2023-01-05T04:45:46;99316.31;;;9.77;78.78
66430;BME280;53242;51.694;10.006;2023-01-05T04:48:09;99321.78;;;9.76;78.56
66430;BME280;53242;51.694;10.006;2023-01-05T04:50:34;99326.25;;;9.75;78.45
66430;BME280;53242;51.694;10.006;2023-01-05T04:52:56;99327.09;;;9.82;78.17
66430;BME280;53242;51.694;10.006;2023-01-05T04:55:19;99331.56;;;9.82;77.56
66430;BME280;53242;51.694;10.006;2023-01-05T04:57:42;99339.81;;;9.79;77.91
66430;BME280;53242;51.694;10.006;2023-01-05T05:00:08;99337.38;;;9.77;77.97
66430;BME280;53242;51.694;10.006;2023-01-05T05:02:33;99335.97;;;9.75;78.20
66430;BME280;53242;51.694;10.006;2023-01-05T05:04:56;99342.69;;;9.84;77.65
66430;BME280;53242;51.694;10.006;2023-01-05T05:07:18;99347.50;;;9.74;78.22
66430;BME280;53242;51.694;10.006;2023-01-05T05:09:41;99345.25;;;9.70;78.44
66430;BME280;53242;51.694;10.006;2023-01-05T05:12:03;99348.28;;;9.67;78.75
66430;BME280;53242;51.694;10.006;2023-01-05T05:14:28;99349.09;;;9.68;78.50
66430;BME280;53242;51.694;10.006;2023-01-05T05:16:54;99351.72;;;9.68;78.50
66430;BME280;53242;51.694;10.006;2023-01-05T05:19:16;99357.88;;;9.75;78.21
66430;BME280;53242;51.694;10.006;2023-01-05T05:21:39;99358.44;;;9.70;78.90
66430;BME280;53242;51.694;10.006;2023-01-05T05:24:01;99363.47;;;9.65;79.45
66430;BME280;53242;51.694;10.006;2023-01-05T05:26:24;99370.31;;;9.60;79.62
66430;BME280;53242;51.694;10.006;2023-01-05T05:28:47;99355.16;;;9.68;79.35
66430;BME280;53242;51.694;10.006;2023-01-05T05:31:12;99364.28;;;9.66;79.70
66430;BME280;53242;51.694;10.006;2023-01-05T05:33:34;99351.69;;;9.61;80.01
66430;BME280;53242;51.694;10.006;2023-01-05T05:35:59;99360.63;;;9.67;79.57
66430;BME280;53242;51.694;10.006;2023-01-05T05:38:21;99359.44;;;9.69;79.43
66430;BME280;53242;51.694;10.006;2023-01-05T05:40:43;99362.47;;;9.66;79.63
66430;BME280;53242;51.694;10.006;2023-01-05T05:43:06;99371.19;;;9.67;79.81
66430;BME280;53242;51.694;10.006;2023-01-05T05:45:28;99366.91;;;9.66;79.91
66430;BME280;53242;51.694;10.006;2023-01-05T05:47:51;99373.13;;;9.58;80.86
66430;BME280;53242;51.694;10.006;2023-01-05T05:50:13;99372.72;;;9.54;81.34
66430;BME280;53242;51.694;10.006;2023-01-05T05:52:35;99375.72;;;9.51;81.76
66430;BME280;53242;51.694;10.006;2023-01-05T05:54:58;99377.34;;;9.52;81.72
66430;BME280;53242;51.694;10.006;2023-01-05T05:57:20;99384.25;;;9.53;81.95
66430;BME280;53242;51.694;10.006;2023-01-05T05:59:43;99394.91;;;9.45;82.40
66430;BME280;53242;51.694;10.006;2023-01-05T06:02:05;99400.06;;;9.53;81.78
66430;BME280;53242;51.694;10.006;2023-01-05T06:04:28;99394.41;;;9.57;81.32
66430;BME280;53242;51.694;10.006;2023-01-05T06:06:50;99395.88;;;9.66;81.12
66430;BME280;53242;51.694;10.006;2023-01-05T06:09:12;99414.03;;;9.54;81.46
66430;BME280;53242;51.694;10.006;2023-01-05T06:11:35;99402.56;;;9.62;81.01
66430;BME280;53242;51.694;10.006;2023-01-05T06:13:57;99398.03;;;9.55;80.55
66430;BME280;53242;51.694;10.006;2023-01-05T06:16:20;99410.09;;;9.65;79.79
66430;BME280;53242;51.694;10.006;2023-01-05T06:18:42;99404.22;;;9.69;79.37
66430;BME280;53242;51.694;10.006;2023-01-05T06:21:05;99405.63;;;9.65;79.49
66430;BME280;53242;51.694;10.006;2023-01-05T06:23:27;99402.19;;;9.65;79.86
66430;BME280;53242;51.694;10.006;2023-01-05T06:25:50;99406.56;;;9.58;80.47
66430;BME280;53242;51.694;10.006;2023-01-05T06:28:12;99407.56;;;9.57;80.62
66430;BME280;53242;51.694;10.006;2023-01-05T06:30:35;99413.69;;;9.57;81.25
66430;BME280;53242;51.694;10.006;2023-01-05T06:32:57;99422.34;;;9.51;81.50
66430;BME280;53242;51.694;10.006;2023-01-05T06:35:20;99416.44;;;9.49;81.83
66430;BME280;53242;51.694;10.006;2023-01-05T06:37:42;99421.25;;;9.45;82.33
66430;BME280;53242;51.694;10.006;2023-01-05T06:40:05;99427.97;;;9.48;82.23
66430;BME280;53242;51.694;10.006;2023-01-05T06:42:28;99417.88;;;9.51;82.07
66430;BME280;53242;51.694;10.006;2023-01-05T06:44:50;99426.53;;;9.45;82.47
66430;BME280;53242;51.694;10.006;2023-01-05T06:47:13;99431.44;;;9.48;82.48
66430;BME280;53242;51.694;10.006;2023-01-05T06:49:35;99432.63;;;9.46;82.34
66430;BME280;53242;51.694;10.006;2023-01-05T06:51:58;99430.59;;;9.48;82.42
66430;BME280;53242;51.694;10.006;2023-01-05T06:54:20;99426.78;;;9.50;82.32
66430;BME280;53242;51.694;10.006;2023-01-05T06:56:42;99449.63;;;9.43;82.63
66430;BME280;53242;51.694;10.006;2023-01-05T06:59:05;99433.19;;;9.63;81.04
66430;BME280;53242;51.694;10.006;2023-01-05T07:01:27;99436.56;;;9.57;81.37
66430;BME280;53242;51.694;10.006;2023-01-05T07:03:50;99433.97;;;9.63;80.74
66430;BME280;53242;51.694;10.006;2023-01-05T07:06:13;99439.44;;;9.62;81.03
66430;BME280;53242;51.694;10.006;2023-01-05T07:08:36;99454.25;;;9.63;80.80
66430;BME280;53242;51.694;10.006;2023-01-05T07:10:58;99458.03;;;9.53;82.24
66430;BME280;53242;51.694;10.006;2023-01-05T07:13:21;99465.88;;;9.47;83.35
66430;BME280;53242;51.694;10.006;2023-01-05T07:15:43;99464.09;;;9.54;83.21
66430;BME280;53242;51.694;10.006;2023-01-05T07:18:06;99461.41;;;9.47;83.70
66430;BME280;53242;51.694;10.006;2023-01-05T07:20:28;99469.59;;;9.37;84.34
66430;BME280;53242;51.694;10.006;2023-01-05T07:22:50;99466.63;;;9.41;84.19
66430;BME280;53242;51.694;10.006;2023-01-05T07:25:13;99466.97;;;9.37;83.96
66430;BME280;53242;51.694;10.006;2023-01-05T07:27:35;99461.72;;;9.37;84.22
66430;BME280;53242;51.694;10.006;2023-01-05T07:29:58;99462.91;;;9.35;84.28
66430;BME280;53242;51.694;10.006;2023-01-05T07:32:20;99467.22;;;9.43;83.57
66430;BME280;53242;51.694;10.006;2023-01-05T07:34:43;99470.50;;;9.45;83.01
66430;BME280;53242;51.694;10.006;2023-01-05T07:37:05;99482.47;;;9.47;82.71
66430;BME280;53242;51.694;10.006;2023-01-05T07:39:27;99490.25;;;9.34;83.75
66430;BME280;53242;51.694;10.006;2023-01-05T07:41:50;99496.13;;;9.36;84.45
66430;BME280;53242;51.694;10.006;2023-01-05T07:44:12;99490.88;;;9.36;84.39
66430;BME280;53242;51.694;10.006;2023-01-05T07:46:35;99495.28;;;9.29;84.92
66430;BME280;53242;51.694;10.006;2023-01-05T07:48:57;99494.69;;;9.33;85.05
66430;BME280;53242;51.694;10.006;2023-01-05T07:51:20;99502.72;;;9.25;85.10
66430;BME280;53242;51.694;10.006;2023-01-05T07:53:43;99505.41;;;9.32;84.35
66430;BME280;53242;51.694;10.006;2023-01-05T07:56:05;99510.69;;;9.32;84.31
66430;BME280;53242;51.694;10.006;2023-01-05T07:58:28;99509.38;;;9.43;83.35
66430;BME280;53242;51.694;10.006;2023-01-05T08:00:51;99506.66;;;9.36;83.26
66430;BME280;53242;51.694;10.006;2023-01-05T08:03:13;99501.38;;;9.51;82.32
66430;BME280;53242;51.694;10.006;2023-01-05T08:05:37;99511.47;;;9.47;82.64
66430;BME280;53242;51.694;10.006;2023-01-05T08:08:00;99510.94;;;9.37;82.75
66430;BME280;53242;51.694;10.006;2023-01-05T08:10:22;99512.47;;;9.46;82.24
66430;BME280;53242;51.694;10.006;2023-01-05T08:12:50;99507.84;;;9.48;82.15
66430;BME280;53242;51.694;10.006;2023-01-05T08:15:31;99524.63;;;9.47;82.21
66430;BME280;53242;51.694;10.006;2023-01-05T08:17:54;99527.72;;;9.51;82.23
66430;BME280;53242;51.694;10.006;2023-01-05T08:20:16;99531.47;;;9.42;83.00
66430;BME280;53242;51.694;10.006;2023-01-05T08:22:39;99543.25;;;9.46;82.85
66430;BME280;53242;51.694;10.006;2023-01-05T08:25:02;99541.81;;;9.43;83.26
66430;BME280;53242;51.694;10.006;2023-01-05T08:27:24;99537.75;;;9.41;84.04
66430;BME280;53242;51.694;10.006;2023-01-05T08:29:47;99536.84;;;9.33;84.87
66430;BME280;53242;51.694;10.006;2023-01-05T08:32:09;99544.66;;;9.27;85.49
66430;BME280;53242;51.694;10.006;2023-01-05T08:34:32;99542.81;;;9.42;85.13
66430;BME280;53242;51.694;10.006;2023-01-05T08:36:54;99546.19;;;9.36;85.25
66430;BME280;53242;51.694;10.006;2023-01-05T08:39:17;99544.81;;;9.40;84.87
66430;BME280;53242;51.694;10.006;2023-01-05T08:41:39;99556.25;;;9.47;84.73
66430;BME280;53242;51.694;10.006;2023-01-05T08:44:09;99554.16;;;9.43;84.40
66430;BME280;53242;51.694;10.006;2023-01-05T08:46:34;99558.69;;;9.49;84.01
66430;BME280;53242;51.694;10.006;2023-01-05T08:48:58;99557.69;;;9.50;83.66
66430;BME280;53242;51.694;10.006;2023-01-05T08:51:21;99551.78;;;9.48;83.35
66430;BME280;53242;51.694;10.006;2023-01-05T08:53:44;99565.78;;;9.48;83.12
66430;BME280;53242;51.694;10.006;2023-01-05T08:56:07;99575.84;;;9.60;82.27
66430;BME280;53242;51.694;10.006;2023-01-05T08:58:31;99583.00;;;9.66;81.98
66430;BME280;53242;51.694;10.006;2023-01-05T09:00:53;99588.00;;;9.61;82.15
66430;BME280;53242;51.694;10.006;2023-01-05T09:03:15;99590.03;;;9.59;82.57
66430;BME280;53242;51.694;10.006;2023-01-05T09:05:38;99593.19;;;9.69;81.52
66430;BME280;53242;51.694;10.006;2023-01-05T09:08:00;99604.59;;;9.76;80.69
66430;BME280;53242;51.694;10.006;2023-01-05T09:10:23;99607.47;;;9.81;80.36
66430;BME280;53242;51.694;10.006;2023-01-05T09:12:45;99615.50;;;9.73;80.71
66430;BME280;53242;51.694;10.006;2023-01-05T09:15:08;99618.59;;;9.77;80.91
66430;BME280;53242;51.694;10.006;2023-01-05T09:17:31;99621.69;;;9.80;81.30
66430;BME280;53242;51.694;10.006;2023-01-05T09:19:53;99631.44;;;9.65;81.98
66430;BME280;53242;51.694;10.006;2023-01-05T09:22:16;99634.25;;;9.63;82.54
66430;BME280;53242;51.694;10.006;2023-01-05T09:24:38;99633.91;;;9.66;82.13
66430;BME280;53242;51.694;10.006;2023-01-05T09:27:01;99627.38;;;9.62;82.64
66430;BME280;53242;51.694;10.006;2023-01-05T09:29:24;99624.16;;;9.67;82.31
66430;BME280;53242;51.694;10.006;2023-01-05T09:31:47;99634.50;;;9.68;81.56
66430;BME280;53242;51.694;10.006;2023-01-05T09:34:10;99639.16;;;9.66;81.52
66430;BME280;53242;51.694;10.006;2023-01-05T09:36:32;99634.75;;;9.74;81.76
66430;BME280;53242;51.694;10.006;2023-01-05T09:38:55;99641.88;;;9.73;81.54
66430;BME280;53242;51.694;10.006;2023-01-05T09:43:57;99641.38;;;9.84;80.16
66430;BME280;53242;51.694;10.006;2023-01-05T09:46:23;99649.19;;;9.93;79.46
66430;BME280;53242;51.694;10.006;2023-01-05T09:48:50;99646.28;;;9.87;80.15
66430;BME280;53242;51.694;10.006;2023-01-05T09:51:14;99662.09;;;9.87;79.70
66430;BME280;53242;51.694;10.006;2023-01-05T09:53:38;99670.91;;;9.95;79.84
66430;BME280;53242;51.694;10.006;2023-01-05T09:56:01;99670.53;;;9.98;79.79
66430;BME280;53242;51.694;10.006;2023-01-05T09:58:29;99674.34;;;9.95;79.84
66430;BME280;53242;51.694;10.006;2023-01-05T10:01:12;99673.53;;;9.95;79.67
66430;BME280;53242;51.694;10.006;2023-01-05T10:03:40;99676.25;;;10.01;79.18
66430;BME280;53242;51.694;10.006;2023-01-05T10:06:09;99693.53;;;9.89;79.85
66430;BME280;53242;51.694;10.006;2023-01-05T10:08:38;99689.81;;;9.98;79.60
66430;BME280;53242;51.694;10.006;2023-01-05T10:11:05;99692.00;;;9.95;79.60
66430;BME280;53242;51.694;10.006;2023-01-05T10:13:59;99688.72;;;9.93;79.56
66430;BME280;53242;51.694;10.006;2023-01-05T10:16:23;99687.00;;;10.00;79.74
66430;BME280;53242;51.694;10.006;2023-01-05T10:18:45;99687.72;;;9.94;80.01
66430;BME280;53242;51.694;10.006;2023-01-05T10:21:25;99676.78;;;9.97;79.85
66430;BME280;53242;51.694;10.006;2023-01-05T10:23:54;99680.47;;;9.96;80.05
66430;BME280;53242;51.694;10.006;2023-01-05T10:26:50;99683.25;;;9.94;80.72
66430;BME280;53242;51.694;10.006;2023-01-05T10:29:18;99678.56;;;9.90;81.27
66430;BME280;53242;51.694;10.006;2023-01-05T10:32:07;99680.56;;;9.87;81.88
66430;BME280;53242;51.694;10.006;2023-01-05T10:34:46;99687.09;;;9.92;81.86
66430;BME280;53242;51.694;10.006;2023-01-05T10:37:31;99687.09;;;9.92;81.80
66430;BME280;53242;51.694;10.006;2023-01-05T10:39:58;99703.22;;;9.82;81.95
66430;BME280;53242;51.694;10.006;2023-01-05T10:45:15;99694.25;;;9.98;79.79
66430;BME280;53242;51.694;10.006;2023-01-05T10:47:39;99707.59;;;10.11;78.68
66430;BME280;53242;51.694;10.006;2023-01-05T10:50:03;99703.69;;;10.07;79.22
66430;BME280;53242;51.694;10.006;2023-01-05T10:52:39;99707.63;;;9.96;79.75
66430;BME280;53242;51.694;10.006;2023-01-05T10:55:04;99701.16;;;9.99;79.30
66430;BME280;53242;51.694;10.006;2023-01-05T10:57:35;99710.47;;;9.95;79.82
66430;BME280;53242;51.694;10.006;2023-01-05T11:02:20;99723.97;;;10.07;79.35
66430;BME280;53242;51.694;10.006;2023-01-05T11:04:46;99726.81;;;10.05;79.59
66430;BME280;53242;51.694;10.006;2023-01-05T11:07:09;99720.59;;;10.13;78.46
66430;BME280;53242;51.694;10.006;2023-01-05T11:09:32;99727.59;;;10.20;77.63
66430;BME280;53242;51.694;10.006;2023-01-05T11:12:01;99723.03;;;10.14;77.92
66430;BME280;53242;51.694;10.006;2023-01-05T11:14:25;99722.50;;;10.19;77.78
66430;BME280;53242;51.694;10.006;2023-01-05T11:16:49;99721.31;;;10.22;77.93
66430;BME280;53242;51.694;10.006;2023-01-05T11:19:15;99725.13;;;10.19;78.66
66430;BME280;53242;51.694;10.006;2023-01-05T11:24:28;99732.72;;;10.29;77.71
66430;BME280;53242;51.694;10.006;2023-01-05T11:26:54;99737.00;;;10.30;77.87
66430;BME280;53242;51.694;10.006;2023-01-05T11:29:17;99744.22;;;10.21;78.47
66430;BME280;53242;51.694;10.006;2023-01-05T11:31:44;99744.16;;;10.14;78.89
66430;BME280;53242;51.694;10.006;2023-01-05T11:34:28;99742.50;;;10.13;78.70
66430;BME280;53242;51.694;10.006;2023-01-05T11:36:53;99741.97;;;10.18;78.12
66430;BME280;53242;51.694;10.006;2023-01-05T11:39:25;99744.63;;;10.03;79.28
66430;BME280;53242;51.694;10.006;2023-01-05T11:41:48;99745.19;;;9.98;79.44
66430;BME280;53242;51.694;10.006;2023-01-05T11:44:19;99748.63;;;9.99;79.87
66430;BME280;53242;51.694;10.006;2023-01-05T11:46:43;99743.47;;;9.91;80.73
66430;BME280;53242;51.694;10.006;2023-01-05T11:49:06;99744.75;;;9.80;82.38
66430;BME280;53242;51.694;10.006;2023-01-05T11:51:34;99749.56;;;9.76;83.54
66430;BME280;53242;51.694;10.006;2023-01-05T11:53:56;99743.22;;;9.70;83.75
66430;BME280;53242;51.694;10.006;2023-01-05T11:56:20;99752.56;;;9.58;84.94
66430;BME280;53242;51.694;10.006;2023-01-05T11:58:44;99751.09;;;9.55;85.47
66430;BME280;53242;51.694;10.006;2023-01-05T12:01:25;99754.28;;;9.51;86.04
66430;BME280;53242;51.694;10.006;2023-01-05T12:04:35;99749.28;;;9.71;85.45
66430;BME280;53242;51.694;10.006;2023-01-05T12:07:30;99741.47;;;9.78;86.24
66430;BME280;53242;51.694;10.006;2023-01-05T12:17:29;99753.09;;;9.83;85.28
66430;BME280;53242;51.694;10.006;2023-01-05T12:20:28;99746.44;;;10.02;84.99
66430;BME280;53242;51.694;10.006;2023-01-05T12:36:26;99749.09;;;10.02;83.00
66430;BME280;53242;51.694;10.006;2023-01-05T12:42:11;99755.06;;;10.11;81.44
66430;BME280;53242;51.694;10.006;2023-01-05T12:44:55;99757.97;;;10.16;80.32
66430;BME280;53242;51.694;10.006;2023-01-05T12:50:26;99755.69;;;10.13;80.02
66430;BME280;53242;51.694;10.006;2023-01-05T12:52:58;99768.78;;;10.22;79.34
66430;BME280;53242;51.694;10.006;2023-01-05T12:55:25;99766.31;;;10.20;79.54
66430;BME280;53242;51.694;10.006;2023-01-05T12:58:13;99763.69;;;10.20;79.07
66430;BME280;53242;51.694;10.006;2023-01-05T13:00:38;99777.22;;;10.32;78.00
66430;BME280;53242;51.694;10.006;2023-01-05T13:03:14;99772.16;;;10.15;78.46
66430;BME280;53242;51.694;10.006;2023-01-05T13:05:44;99777.25;;;10.17;78.74
66430;BME280;53242;51.694;10.006;2023-01-05T13:08:20;99781.72;;;10.16;78.57
66430;BME280;53242;51.694;10.006;2023-01-05T13:13:32;99779.06;;;10.16;79.15
66430;BME280;53242;51.694;10.006;2023-01-05T13:16:00;99783.44;;;10.24;78.57
66430;BME280;53242;51.694;10.006;2023-01-05T13:18:24;99791.16;;;10.26;78.89
66430;BME280;53242;51.694;10.006;2023-01-05T13:20:52;99798.34;;;10.32;78.25
66430;BME280;53242;51.694;10.006;2023-01-05T13:23:20;99788.31;;;10.27;77.83
66430;BME280;53242;51.694;10.006;2023-01-05T13:25:49;99802.97;;;10.30;78.29
66430;BME280;53242;51.694;10.006;2023-01-05T13:28:18;99798.06;;;10.27;78.84
66430;BME280;53242;51.694;10.006;2023-01-05T13:30:49;99803.34;;;10.27;78.60
66430;BME280;53242;51.694;10.006;2023-01-05T13:33:46;99798.94;;;10.34;78.26
66430;BME280;53242;51.694;10.006;2023-01-05T13:44:23;99807.25;;;10.31;77.73
66430;BME280;53242;51.694;10.006;2023-01-05T13:47:22;99812.34;;;10.32;77.71
66430;BME280;53242;51.694;10.006;2023-01-05T13:52:51;99813.91;;;10.27;77.57
66430;BME280;53242;51.694;10.006;2023-01-05T13:55:19;99817.16;;;10.29;76.77
66430;BME280;53242;51.694;10.006;2023-01-05T13:57:43;99816.88;;;10.24;77.21
66430;BME280;53242;51.694;10.006;2023-01-05T14:00:32;99831.44;;;10.19;77.11
66430;BME280;53242;51.694;10.006;2023-01-05T14:03:11;99836.53;;;10.21;76.80